Aeroporto :
LOGIN :

Iscrizione | Disclaimer

   EN    FR    IT 

 










Sommario :    VFR   VFR Marginale   IFR   IFR Intensivo   IFR Molto Intensivo
Visibilità : 
Base nubi : 
>= 8 km
>= 3000ft
5 / 8 km
1000 / 3000 ft
1500m / 5 km
500 / 1000 ft
800 / 1500m
200 / 500 ft
< 800m
< 200 ft
Simboli :   Temporali  Nebbia  Neve Forte  Precipitazioni Forti  Vento > 20 kt
SIGMETs :   Varie  Temporali  Ghiacco  Turbolenza  Onda orograficha  Ceneri Vulcaniche






- Altitudine del aeroporto : 55 ft
- Codice IATA : PYR


LGAD - Andravida

ULTIMO METAR :
  • 040950Z 36010KT 9999 FEW025 BKN080 14/11 Q1005

METARs OBSOLETI :
  • 040920Z 34008KT 8000 -RA FEW025 BKN080 14/11 Q1006
  • 040850Z 08004KT 9999 FEW025 BKN080 14/11 Q1006
  • 040820Z 03004KT 9999 FEW025 BKN080 14/10 Q1006
  • 040750Z VRB03KT 9999 FEW025 BKN080 14/10 Q1006
  • 040720Z 03006KT 9999 FEW025 BKN080 14/09 Q1006

TAF TAF LGAD
Valido dal 04 a 09 ore il 04 a 18 ore UTC


040800Z 0409/0418 01010KT 9999 FEW025 BKN080
PROB40
TEMPO 0409/0418 5000 RA



MetMap, La meteo Aeronautica in un colpo d'occhio ! - Copyright ORBIFLY Dicembre 2007 - Disclaimer

ORBIFLY MET'MAP TEAM :

Programmazione e sviluppo : Alexandra Zaïnal
Concezione : Baudouin d'Aumeries
Aiuto per la programmazione : Marc-Olivier Méhu
Supporto tecnico e logistico : Manuel Goepfert
Aiuto per la traduzione : Arnaldo La Scala

Contatto : metmap@orbifly.com




FONTI E CREDITI :

   NOAA